< < Back
Terminal Aerodrome Forecast


Current Version              Previous Versions:   1  2  3  4  5  6  7  8  9  

Terminal Aerodrome Forecast

713
FTUS42 KFFC 010500
TAFFTY
TAF
KFTY 010534Z 0106/0206 06007KT P6SM VCSH SCT004 OVC008
      TEMPO 0110/0112 4SM BR OVC004
     FM011500 07006KT P6SM VCSH BKN012
     FM011800 06005KT P6SM VCSH SCT025 BKN035
      TEMPO 0119/0123 6SM -SHRA BR BKN025
     FM012300 05004KT P6SM VCSH BKN025=



Latest METAR

120
SAUS70 KWBC 010800 RRJ
MTRFTY
METAR KFTY 010753Z 06006KT 9SM -RA OVC007 20/19 A3005 RMK AO2 RAB0656
SLP167 P0001 T02000189


USA.gov is the U.S. government's official web portal to all federal, state and local government web resources and services.